createdAt,value
2018-07-04T00:02:23.336Z,18.60
2018-07-04T00:05:04.068Z,18.60
2018-07-04T00:07:44.800Z,18.50
2018-07-04T00:10:25.584Z,18.40
2018-07-04T00:13:06.433Z,18.40
2018-07-04T00:15:47.288Z,18.30
2018-07-04T00:18:27.910Z,18.30
2018-07-04T00:21:08.855Z,18.30
2018-07-04T00:23:50.170Z,18.40
2018-07-04T00:26:31.061Z,18.40
2018-07-04T00:31:46.437Z,18.40
2018-07-04T00:34:27.200Z,18.40
2018-07-04T00:37:08.535Z,18.40
2018-07-04T00:39:49.311Z,18.30
2018-07-04T00:42:30.110Z,18.30
2018-07-04T00:45:10.998Z,18.30
2018-07-04T00:47:51.696Z,18.30
2018-07-04T00:50:32.537Z,18.20
2018-07-04T00:53:13.200Z,18.20
2018-07-04T00:58:28.396Z,18.10
2018-07-04T01:01:08.999Z,18.10
2018-07-04T01:03:49.772Z,18.10
2018-07-04T01:06:30.671Z,18.00
2018-07-04T01:09:11.543Z,18.00
2018-07-04T01:11:52.583Z,17.90
2018-07-04T01:14:33.239Z,17.90
2018-07-04T01:17:13.982Z,17.90
2018-07-04T01:19:54.930Z,17.80
2018-07-04T01:22:35.812Z,17.80
2018-07-04T01:25:16.676Z,17.80
2018-07-04T01:27:57.545Z,17.80
2018-07-04T01:30:38.387Z,17.80
2018-07-04T01:33:19.179Z,17.70
2018-07-04T01:35:59.999Z,17.70
2018-07-04T01:38:40.823Z,17.70
2018-07-04T01:41:21.637Z,17.70
2018-07-04T01:44:02.450Z,17.70
2018-07-04T01:46:43.315Z,17.60
2018-07-04T01:49:24.082Z,17.60
2018-07-04T01:52:04.856Z,17.60
2018-07-04T01:54:45.808Z,17.60
2018-07-04T01:57:26.594Z,17.50
2018-07-04T02:00:07.346Z,17.50
2018-07-04T02:02:48.127Z,17.50
2018-07-04T02:05:28.764Z,17.50
2018-07-04T02:08:09.532Z,17.50
2018-07-04T02:10:50.402Z,17.50
2018-07-04T02:13:31.257Z,17.40
2018-07-04T02:16:12.055Z,17.40
2018-07-04T02:18:52.959Z,17.40
2018-07-04T02:21:33.792Z,17.30
2018-07-04T02:24:14.579Z,17.30
2018-07-04T02:26:55.381Z,17.10
2018-07-04T02:29:36.268Z,17.00
2018-07-04T02:32:17.144Z,17.00
2018-07-04T02:35:00.424Z,17.00
2018-07-04T02:37:42.454Z,17.00
2018-07-04T02:42:58.304Z,17.00
2018-07-04T02:45:39.344Z,17.00
2018-07-04T02:48:20.351Z,17.10
2018-07-04T02:51:01.055Z,17.10
2018-07-04T02:53:41.719Z,17.10
2018-07-04T02:56:22.432Z,17.10
2018-07-04T02:59:03.292Z,17.20
2018-07-04T03:01:44.219Z,17.10
2018-07-04T03:04:25.008Z,17.20
2018-07-04T03:07:06.263Z,17.20
2018-07-04T03:09:47.296Z,17.20
2018-07-04T03:12:28.125Z,17.10
2018-07-04T03:15:08.858Z,17.20
2018-07-04T03:17:49.499Z,17.20
2018-07-04T03:20:30.397Z,17.20
2018-07-04T03:23:11.163Z,17.20
2018-07-04T03:25:51.856Z,17.20
2018-07-04T03:28:32.624Z,17.20
2018-07-04T03:31:13.335Z,17.20
2018-07-04T03:33:53.991Z,17.20
2018-07-04T03:36:34.778Z,17.20
2018-07-04T03:39:15.655Z,17.20
2018-07-04T03:41:56.652Z,17.30
2018-07-04T03:44:37.561Z,17.20
2018-07-04T03:47:18.963Z,17.20
2018-07-04T03:49:59.644Z,17.20
2018-07-04T03:52:40.426Z,17.20
2018-07-04T03:55:21.459Z,17.20
2018-07-04T03:58:02.444Z,17.20
2018-07-04T04:03:17.685Z,17.30
2018-07-04T04:05:58.386Z,17.40
2018-07-04T04:08:39.264Z,17.40
2018-07-04T04:11:20.097Z,17.50
2018-07-04T04:14:00.842Z,17.60
2018-07-04T04:16:41.602Z,17.60
2018-07-04T04:19:27.390Z,17.60
2018-07-04T04:24:42.879Z,17.70
2018-07-04T04:27:23.650Z,17.70
2018-07-04T04:30:04.610Z,17.80
2018-07-04T04:32:45.338Z,17.90
2018-07-04T04:35:26.317Z,17.90
2018-07-04T04:38:07.131Z,18.00
2018-07-04T04:40:47.989Z,18.00
2018-07-04T04:43:28.828Z,18.00
2018-07-04T04:46:09.456Z,18.10
2018-07-04T04:48:50.108Z,18.20
2018-07-04T04:51:30.947Z,18.30
2018-07-04T04:54:11.815Z,18.40
2018-07-04T04:56:52.608Z,18.50
2018-07-04T04:59:33.494Z,18.60
2018-07-04T05:02:14.350Z,18.70
2018-07-04T05:04:55.040Z,18.70
2018-07-04T05:07:35.767Z,18.80
2018-07-04T05:10:16.500Z,18.90
2018-07-04T05:12:57.122Z,19.10
2018-07-04T05:15:37.920Z,19.10
2018-07-04T05:18:18.434Z,19.20
2018-07-04T05:20:59.097Z,19.20
2018-07-04T05:23:39.836Z,19.20
2018-07-04T05:26:20.711Z,19.20
2018-07-04T05:29:01.300Z,19.20
2018-07-04T05:31:42.067Z,19.20
2018-07-04T05:34:22.769Z,19.20
2018-07-04T05:37:03.623Z,19.20
2018-07-04T05:39:44.318Z,19.20
2018-07-04T05:42:25.169Z,19.20
2018-07-04T05:45:05.915Z,19.20
2018-07-04T05:47:46.751Z,19.30
2018-07-04T05:50:27.641Z,19.30
2018-07-04T05:53:08.511Z,19.30
2018-07-04T05:55:49.449Z,19.40
2018-07-04T05:58:30.304Z,19.50
2018-07-04T06:01:11.183Z,19.70
2018-07-04T06:03:51.870Z,19.70
2018-07-04T06:06:32.665Z,19.70
2018-07-04T06:09:13.578Z,19.80
2018-07-04T06:11:54.710Z,19.90
2018-07-04T06:14:35.589Z,20.00
2018-07-04T06:17:16.251Z,20.00
2018-07-04T06:19:56.931Z,20.10
2018-07-04T06:22:37.826Z,20.10
2018-07-04T06:25:18.673Z,20.20
2018-07-04T06:30:34.035Z,20.30
2018-07-04T06:33:14.955Z,20.40
2018-07-04T06:35:55.711Z,20.50
2018-07-04T06:38:24.117Z,20.60
2018-07-04T06:40:52.549Z,20.70
2018-07-04T06:43:20.948Z,20.80
2018-07-04T06:45:49.356Z,20.80
2018-07-04T06:48:17.754Z,20.90
2018-07-04T06:50:46.179Z,21.00
2018-07-04T06:53:14.596Z,21.00
2018-07-04T06:55:43.031Z,21.10
2018-07-04T06:58:11.451Z,21.10
2018-07-04T07:00:39.939Z,21.20
2018-07-04T07:03:20.795Z,21.30
2018-07-04T07:06:01.944Z,21.20
2018-07-04T07:08:42.636Z,21.20
2018-07-04T07:11:23.402Z,21.30
2018-07-04T07:14:04.142Z,21.40
2018-07-04T07:16:44.921Z,21.50
2018-07-04T07:19:25.595Z,21.70
2018-07-04T07:22:06.470Z,21.80
2018-07-04T07:24:47.315Z,21.90
2018-07-04T07:30:02.916Z,22.20
2018-07-04T07:32:43.849Z,22.20
2018-07-04T07:35:24.563Z,22.30
2018-07-04T07:38:05.393Z,22.30
2018-07-04T07:40:46.179Z,22.30
2018-07-04T07:43:27.113Z,22.30
2018-07-04T07:46:07.908Z,22.40
2018-07-04T07:48:48.602Z,22.40
2018-07-04T07:51:29.525Z,22.40
2018-07-04T07:54:10.245Z,22.50
2018-07-04T07:56:51.208Z,22.40
2018-07-04T07:59:32.059Z,22.40
2018-07-04T08:02:13.103Z,22.40
2018-07-04T08:04:53.906Z,22.40
2018-07-04T08:07:34.686Z,22.50
2018-07-04T08:10:15.431Z,22.50
2018-07-04T08:12:56.230Z,22.60
2018-07-04T08:15:37.047Z,22.60
2018-07-04T08:18:17.844Z,22.60
2018-07-04T08:20:58.701Z,22.60
2018-07-04T08:23:39.621Z,22.50
2018-07-04T08:26:20.555Z,22.60
2018-07-04T08:29:01.433Z,22.60
2018-07-04T08:31:42.279Z,22.70
2018-07-04T08:34:23.024Z,22.80
2018-07-04T08:37:03.823Z,22.90
2018-07-04T08:39:44.758Z,23.10
2018-07-04T08:42:25.559Z,23.30
2018-07-04T08:45:06.420Z,23.60
2018-07-04T08:47:47.319Z,23.80
2018-07-04T08:50:28.275Z,24.10
2018-07-04T08:53:09.241Z,24.10
2018-07-04T08:55:50.130Z,24.20
2018-07-04T08:58:31.011Z,24.30
2018-07-04T09:03:46.459Z,24.70
2018-07-04T09:06:27.243Z,24.70
2018-07-04T09:09:08.137Z,24.70
2018-07-04T09:11:48.839Z,24.80
2018-07-04T09:14:29.663Z,24.80
2018-07-04T09:17:10.633Z,24.80
2018-07-04T09:19:51.566Z,24.80
2018-07-04T09:22:32.341Z,24.80
2018-07-04T09:25:13.334Z,24.70
2018-07-04T09:27:54.119Z,24.80
2018-07-04T09:30:35.188Z,24.80
2018-07-04T09:33:15.982Z,24.90
2018-07-04T09:35:56.887Z,24.90
2018-07-04T09:38:37.659Z,24.90
2018-07-04T09:41:18.534Z,24.80
2018-07-04T09:43:59.403Z,24.70
2018-07-04T09:46:40.343Z,24.50
2018-07-04T09:49:20.990Z,24.40
2018-07-04T09:52:01.908Z,24.30
2018-07-04T09:54:42.834Z,24.40
2018-07-04T09:57:23.535Z,24.40
2018-07-04T10:00:04.388Z,24.40
2018-07-04T10:02:45.096Z,24.50
2018-07-04T10:05:25.936Z,24.60
2018-07-04T10:08:06.620Z,24.60
2018-07-04T10:10:47.326Z,24.80
2018-07-04T10:13:28.170Z,24.80
2018-07-04T10:16:09.714Z,24.90
2018-07-04T10:18:50.639Z,24.60
2018-07-04T10:21:31.360Z,24.60
2018-07-04T10:24:12.162Z,24.70
2018-07-04T10:26:53.040Z,24.90
2018-07-04T10:29:33.887Z,25.00
2018-07-04T10:32:14.705Z,25.10
2018-07-04T10:34:55.679Z,25.10
2018-07-04T10:37:36.655Z,25.10
2018-07-04T10:40:17.473Z,25.20
2018-07-04T10:42:58.137Z,25.20
2018-07-04T10:45:39.037Z,25.10
2018-07-04T10:48:19.657Z,25.00
2018-07-04T10:51:00.628Z,25.00
2018-07-04T10:53:41.581Z,25.10
2018-07-04T10:56:22.190Z,25.10
2018-07-04T10:59:02.972Z,25.00
2018-07-04T11:01:43.710Z,24.90
2018-07-04T11:04:24.499Z,24.80
2018-07-04T11:07:05.462Z,24.70
2018-07-04T11:09:46.337Z,24.70
2018-07-04T11:12:27.219Z,24.70
2018-07-04T11:15:08.208Z,24.60
2018-07-04T11:17:49.113Z,24.80
2018-07-04T11:20:29.904Z,25.00
2018-07-04T11:23:10.890Z,25.20
2018-07-04T11:25:51.770Z,25.30
2018-07-04T11:28:32.717Z,25.50
2018-07-04T11:31:13.507Z,25.60
2018-07-04T11:33:54.499Z,25.70
2018-07-04T11:36:35.234Z,25.80
2018-07-04T11:39:16.065Z,25.90
2018-07-04T11:41:56.950Z,26.20
2018-07-04T11:44:37.867Z,26.40
2018-07-04T11:47:06.479Z,26.50
2018-07-04T11:49:34.947Z,26.40
2018-07-04T11:52:03.403Z,26.10
2018-07-04T11:54:31.842Z,26.00
2018-07-04T11:57:00.326Z,25.80
2018-07-04T11:59:28.695Z,25.60
2018-07-04T12:01:57.136Z,25.50
2018-07-04T12:04:37.931Z,25.40
2018-07-04T12:07:08.788Z,25.30
2018-07-04T12:09:39.270Z,25.10
2018-07-04T12:12:07.718Z,25.00
2018-07-04T12:14:36.122Z,24.90
2018-07-04T12:19:33.096Z,23.20
2018-07-04T12:22:01.536Z,22.70
2018-07-04T12:24:29.944Z,22.50
2018-07-04T12:29:26.872Z,22.90
2018-07-04T12:31:55.325Z,23.30
2018-07-04T12:34:23.697Z,23.80
2018-07-04T12:36:52.172Z,24.30
2018-07-04T12:39:20.592Z,24.70
2018-07-04T12:41:49.071Z,25.00
2018-07-04T12:46:46.057Z,25.90
2018-07-04T12:49:14.629Z,26.30
2018-07-04T12:51:43.070Z,26.50
2018-07-04T12:54:16.848Z,26.60
2018-07-04T12:56:57.584Z,26.70
2018-07-04T13:02:12.931Z,27.20
2018-07-04T13:04:53.778Z,27.50
2018-07-04T13:07:34.647Z,27.60
2018-07-04T13:10:15.457Z,27.50
2018-07-04T13:12:56.192Z,27.10
2018-07-04T13:15:37.022Z,26.60
2018-07-04T13:18:17.980Z,26.50
2018-07-04T13:20:58.805Z,26.50
2018-07-04T13:23:39.672Z,26.30
2018-07-04T13:26:20.541Z,26.10
2018-07-04T13:29:01.492Z,25.80
2018-07-04T13:31:42.454Z,25.60
2018-07-04T13:34:23.221Z,25.50
2018-07-04T13:39:38.730Z,25.70
2018-07-04T13:42:19.691Z,25.80
2018-07-04T13:47:35.118Z,25.90
2018-07-04T13:50:15.818Z,25.80
2018-07-04T13:52:56.666Z,26.00
2018-07-04T13:55:37.691Z,26.20
2018-07-04T13:58:18.457Z,26.30
2018-07-04T14:00:59.323Z,26.10
2018-07-04T14:06:14.943Z,26.00
2018-07-04T14:08:56.021Z,26.00
2018-07-04T14:11:36.900Z,26.00
2018-07-04T14:14:17.740Z,26.00
2018-07-04T14:16:58.504Z,26.20
2018-07-04T14:19:39.220Z,26.40
2018-07-04T14:22:20.225Z,26.80
2018-07-04T14:25:00.991Z,26.60
2018-07-04T14:27:41.785Z,26.50
2018-07-04T14:30:22.707Z,26.50
2018-07-04T14:33:03.572Z,26.50
2018-07-04T14:35:44.350Z,26.30
2018-07-04T14:38:25.242Z,26.40
2018-07-04T14:41:06.168Z,26.20
2018-07-04T14:43:46.888Z,26.30
2018-07-04T14:46:27.688Z,26.20
2018-07-04T14:49:08.743Z,26.20
2018-07-04T14:51:49.973Z,26.10
2018-07-04T14:54:30.846Z,25.90
2018-07-04T14:57:11.747Z,26.00
2018-07-04T14:59:52.444Z,26.10
2018-07-04T15:02:33.323Z,26.20
2018-07-04T15:05:13.973Z,26.20
2018-07-04T15:07:54.990Z,26.40
2018-07-04T15:10:35.885Z,26.80
2018-07-04T15:13:16.778Z,27.00
2018-07-04T15:15:57.543Z,26.90
2018-07-04T15:18:38.492Z,26.90
2018-07-04T15:21:19.370Z,27.10
2018-07-04T15:24:00.248Z,27.20
2018-07-04T15:26:41.110Z,27.30
2018-07-04T15:29:21.937Z,27.40
2018-07-04T15:32:02.693Z,27.30
2018-07-04T15:34:43.717Z,27.20
2018-07-04T15:37:24.533Z,27.00
2018-07-04T15:40:05.372Z,27.00
2018-07-04T15:42:46.232Z,27.00
2018-07-04T15:45:27.063Z,27.20
2018-07-04T15:48:07.735Z,27.20
2018-07-04T15:50:48.679Z,27.30
2018-07-04T15:53:29.372Z,27.30
2018-07-04T15:56:10.281Z,27.40
2018-07-04T15:58:51.309Z,27.50
2018-07-04T16:01:32.256Z,27.80
2018-07-04T16:04:13.293Z,28.30
2018-07-04T16:06:54.241Z,29.10
2018-07-04T16:09:35.196Z,29.50
2018-07-04T16:12:16.138Z,30.00
2018-07-04T16:17:31.420Z,31.20
2018-07-04T16:22:46.854Z,30.90
2018-07-04T16:25:27.576Z,30.60
2018-07-04T16:28:08.221Z,29.80
2018-07-04T16:30:49.232Z,29.40
2018-07-04T16:33:30.024Z,28.80
2018-07-04T16:36:11.167Z,28.50
2018-07-04T16:38:51.870Z,28.20
2018-07-04T16:41:32.702Z,27.60
2018-07-04T16:44:13.555Z,27.20
2018-07-04T16:46:54.402Z,26.80
2018-07-04T16:49:35.191Z,26.60
2018-07-04T16:52:16.123Z,26.40
2018-07-04T16:54:57.084Z,26.40
2018-07-04T16:57:38.128Z,26.20
2018-07-04T17:00:18.839Z,25.80
2018-07-04T17:02:59.541Z,25.70
2018-07-04T17:05:40.248Z,25.50
2018-07-04T17:08:21.001Z,25.50
2018-07-04T17:11:02.042Z,25.50
2018-07-04T17:13:43.039Z,25.50
2018-07-04T17:16:23.733Z,25.50
2018-07-04T17:19:04.651Z,25.50
2018-07-04T17:21:45.670Z,25.20
2018-07-04T17:24:26.580Z,25.10
2018-07-04T17:27:07.985Z,25.00
2018-07-04T17:29:49.034Z,24.90
2018-07-04T17:32:29.901Z,25.00
2018-07-04T17:35:10.821Z,25.10
2018-07-04T17:37:51.588Z,25.10
2018-07-04T17:40:32.268Z,25.10
2018-07-04T17:43:13.026Z,25.10
2018-07-04T17:45:53.956Z,25.00
2018-07-04T17:48:34.924Z,24.90
2018-07-04T17:51:15.868Z,24.80
2018-07-04T17:53:56.845Z,24.70
2018-07-04T17:56:37.579Z,24.70
2018-07-04T17:59:18.586Z,24.60
2018-07-04T18:01:59.365Z,24.40
2018-07-04T18:04:40.255Z,24.30
2018-07-04T18:09:55.553Z,24.20
2018-07-04T18:12:36.489Z,24.10
2018-07-04T18:15:17.376Z,24.10
2018-07-04T18:17:58.314Z,24.00
2018-07-04T18:20:39.148Z,23.90
2018-07-04T18:23:20.044Z,23.90
2018-07-04T18:26:00.942Z,23.80
2018-07-04T18:28:41.937Z,23.70
2018-07-04T18:31:22.695Z,23.60
2018-07-04T18:34:03.561Z,23.50
2018-07-04T18:36:44.492Z,23.40
2018-07-04T18:39:25.220Z,23.40
2018-07-04T18:42:06.151Z,23.30
2018-07-04T18:44:47.111Z,23.20
2018-07-04T18:47:28.146Z,23.10
2018-07-04T18:50:09.350Z,23.00
2018-07-04T18:52:50.212Z,22.90
2018-07-04T18:55:31.191Z,22.80
2018-07-04T19:00:46.918Z,22.70
2018-07-04T19:03:28.419Z,22.60
2018-07-04T19:06:09.453Z,22.50
2018-07-04T19:08:50.178Z,22.40
2018-07-04T19:11:31.045Z,22.30
2018-07-04T19:14:12.751Z,22.20
2018-07-04T19:16:53.584Z,22.10
2018-07-04T19:19:34.568Z,22.10
2018-07-04T19:22:15.468Z,22.00
2018-07-04T19:24:56.821Z,21.90
2018-07-04T19:27:37.807Z,21.90
2018-07-04T19:30:18.940Z,21.80
2018-07-04T19:33:00.408Z,21.70
2018-07-04T19:35:41.316Z,21.60
2018-07-04T19:38:22.217Z,21.50
2018-07-04T19:41:03.484Z,21.50
2018-07-04T19:43:44.795Z,21.40
2018-07-04T19:46:25.934Z,21.30
2018-07-04T19:49:07.520Z,21.20
2018-07-04T19:51:48.282Z,21.10
2018-07-04T19:54:29.144Z,20.90
2018-07-04T19:57:10.615Z,20.80
2018-07-04T19:59:52.264Z,20.70
2018-07-04T20:02:33.084Z,20.60
2018-07-04T20:05:13.978Z,20.50
2018-07-04T20:07:54.796Z,20.40
2018-07-04T20:10:35.665Z,20.40
2018-07-04T20:13:16.460Z,20.30
2018-07-04T20:15:57.298Z,20.30
2018-07-04T20:18:38.133Z,20.20
2018-07-04T20:21:19.032Z,20.20
2018-07-04T20:23:59.931Z,20.20
2018-07-04T20:26:40.665Z,20.10
2018-07-04T20:29:21.434Z,20.10
2018-07-04T20:32:02.381Z,20.00
2018-07-04T20:34:43.346Z,19.90
2018-07-04T20:37:24.153Z,19.90
2018-07-04T20:40:05.093Z,19.80
2018-07-04T20:42:45.935Z,19.80
2018-07-04T20:45:27.131Z,19.80
2018-07-04T20:48:07.733Z,19.70
2018-07-04T20:53:23.498Z,19.60
2018-07-04T20:56:04.281Z,19.60
2018-07-04T20:58:45.078Z,19.50
2018-07-04T21:01:26.117Z,19.50
2018-07-04T21:04:06.977Z,19.40
2018-07-04T21:06:47.767Z,19.40
2018-07-04T21:09:28.469Z,19.40
2018-07-04T21:12:09.150Z,19.30
2018-07-04T21:14:50.023Z,19.30
2018-07-04T21:17:30.889Z,19.30
2018-07-04T21:20:11.565Z,19.20
2018-07-04T21:22:52.574Z,19.10
2018-07-04T21:25:33.247Z,19.10
2018-07-04T21:28:14.275Z,19.10
2018-07-04T21:30:55.263Z,19.00
2018-07-04T21:33:36.077Z,19.00
2018-07-04T21:36:16.867Z,19.00
2018-07-04T21:38:57.523Z,18.90
2018-07-04T21:41:38.404Z,18.90
2018-07-04T21:44:19.371Z,18.80
2018-07-04T21:47:00.144Z,18.80
2018-07-04T21:49:41.060Z,18.80
2018-07-04T21:52:21.885Z,18.70
2018-07-04T21:55:02.664Z,18.70
2018-07-04T21:57:43.405Z,18.60
2018-07-04T22:00:24.372Z,18.60
2018-07-04T22:03:05.188Z,18.50
2018-07-04T22:05:45.833Z,18.50
2018-07-04T22:08:26.668Z,18.40
2018-07-04T22:11:07.319Z,18.30
2018-07-04T22:13:48.284Z,18.30
2018-07-04T22:16:29.157Z,18.20
2018-07-04T22:19:09.985Z,18.20
2018-07-04T22:21:50.819Z,18.20
2018-07-04T22:24:31.606Z,18.10
2018-07-04T22:27:12.439Z,18.10
2018-07-04T22:29:53.347Z,18.10
2018-07-04T22:32:34.193Z,18.10
2018-07-04T22:35:15.042Z,18.10
2018-07-04T22:37:56.046Z,18.10
2018-07-04T22:40:36.798Z,18.00
2018-07-04T22:43:17.673Z,18.00
2018-07-04T22:45:58.725Z,18.00
2018-07-04T22:48:39.477Z,17.90
2018-07-04T22:51:20.275Z,17.90
2018-07-04T22:54:00.965Z,17.80
2018-07-04T22:56:41.795Z,17.70
2018-07-04T22:59:22.556Z,17.70
2018-07-04T23:02:03.320Z,17.60
2018-07-04T23:04:44.027Z,17.60
2018-07-04T23:07:24.752Z,17.50
2018-07-04T23:10:05.596Z,17.50
2018-07-04T23:12:46.467Z,17.40
2018-07-04T23:15:27.387Z,17.50
2018-07-04T23:18:08.283Z,17.50
2018-07-04T23:23:23.629Z,17.40
2018-07-04T23:26:04.603Z,17.40
2018-07-04T23:28:45.479Z,17.40
2018-07-04T23:31:26.095Z,17.30
2018-07-04T23:34:06.823Z,17.30
2018-07-04T23:36:47.755Z,17.20
2018-07-04T23:39:28.655Z,17.10
2018-07-04T23:42:09.435Z,17.10
2018-07-04T23:44:50.316Z,17.00
2018-07-04T23:47:31.028Z,17.00
2018-07-04T23:50:11.852Z,17.00
2018-07-04T23:52:52.673Z,17.00
2018-07-04T23:55:33.474Z,17.00
2018-07-04T23:58:14.287Z,17.00
